PWSweather.com
Personal Weather Stations
Station Observations
SELKIRK1
Ontario, Selkirk, ON N0A 1P0

OntarioSelkirk, ON N0A 1P0

Lat: 42.8083652, Lon: -79.94971040000001

Elevation: 583

Station Type: Acurite 5 in 1

http://gavinsurf.com

High Low Average
Temperature 89.1°F31.7°C 70.0°F21.1°C 78.2°F25.7°C
Dew Point 81.2°F27.3°C 69.7°F20.9°C 74.8°F23.8°C
Winds 8.1 mph 13.0 kmh Calm Calm 3.0 mph S4.8 kmh S
Wind Gusts 9.2 mph14.8 kmh -- 3.0 mph4.8 kmh
Humidity 99% 67% 90%
Pressure 31.88 in1079.6 mb 26.74 in905.5 mb -
Precipitation 0.00 in0.0 mm - -
Hour Temp Dew Point Humidity Winds Wind Gusts Pressure Precip Precip Rate Daily Precip Total
12:00 AM 71.1°F21.7°C 70.8°F21.6°C 99% Calm Calm -- 30.34 in1027.4 mb - 0.00 in0.0 mm 0.00 in0.0 mm
12:10 AM 71.3°F21.8°C 71.0°F21.7°C 99% Calm Calm 1.2 mph1.9 kmh 30.39 in1029.1 mb - 0.00 in0.0 mm 0.00 in0.0 mm
12:15 AM 71.3°F21.8°C 71.0°F21.7°C 99% 1.2 mph SW1.9 kmh SW 1.2 mph1.9 kmh 30.39 in1029.1 mb - 0.00 in0.0 mm 0.00 in0.0 mm
12:20 AM 71.5°F21.9°C 71.2°F21.8°C 99% Calm Calm -- 30.42 in1030.1 mb - 0.00 in0.0 mm 0.00 in0.0 mm
12:25 AM 71.6°F22.0°C 71.3°F21.8°C 99% 1.2 mph SSW1.9 kmh SSW 1.2 mph1.9 kmh 30.42 in1030.1 mb - 0.00 in0.0 mm 0.00 in0.0 mm
12:30 AM 71.6°F22.0°C 71.3°F21.8°C 99% 1.2 mph N1.9 kmh N 1.2 mph1.9 kmh 30.47 in1031.8 mb - 0.00 in0.0 mm 0.00 in0.0 mm
12:35 AM 71.6°F22.0°C 71.3°F21.8°C 99% Calm Calm -- 30.47 in1031.8 mb - 0.00 in0.0 mm 0.00 in0.0 mm
12:40 AM 71.6°F22.0°C 71.3°F21.8°C 99% Calm Calm -- 30.47 in1031.8 mb - 0.00 in0.0 mm 0.00 in0.0 mm
12:45 AM 71.6°F22.0°C 71.3°F21.8°C 99% Calm Calm -- 30.52 in1033.5 mb - 0.00 in0.0 mm 0.00 in0.0 mm
12:50 AM 71.8°F22.1°C 71.5°F21.9°C 99% 1.2 mph E1.9 kmh E 1.2 mph1.9 kmh 30.52 in1033.5 mb - 0.00 in0.0 mm 0.00 in0.0 mm
12:55 AM 71.8°F22.1°C 71.5°F21.9°C 99% 1.2 mph NW1.9 kmh NW 1.2 mph1.9 kmh 30.55 in1034.5 mb - 0.00 in0.0 mm 0.00 in0.0 mm
01:00 AM 71.8°F22.1°C 71.5°F21.9°C 99% 2.3 mph N3.7 kmh N 2.3 mph3.7 kmh 30.55 in1034.5 mb - 0.00 in0.0 mm 0.00 in0.0 mm
01:10 AM 72.2°F22.3°C 71.9°F22.2°C 99% 1.2 mph ENE1.9 kmh ENE 1.2 mph1.9 kmh 30.59 in1035.9 mb - 0.00 in0.0 mm 0.00 in0.0 mm
01:15 AM 72.5°F22.5°C 72.2°F22.3°C 99% Calm Calm 2.3 mph3.7 kmh 30.59 in1035.9 mb - 0.00 in0.0 mm 0.00 in0.0 mm
01:20 AM 72.3°F22.4°C 72.0°F22.2°C 99% 1.2 mph NW1.9 kmh NW 2.3 mph3.7 kmh 30.64 in1037.6 mb - 0.00 in0.0 mm 0.00 in0.0 mm
01:25 AM 72.5°F22.5°C 72.2°F22.3°C 99% 2.3 mph W3.7 kmh W 3.5 mph5.6 kmh 30.64 in1037.6 mb - 0.00 in0.0 mm 0.00 in0.0 mm
01:30 AM 72.5°F22.5°C 72.2°F22.3°C 99% 1.2 mph SSE1.9 kmh SSE 2.3 mph3.7 kmh 30.67 in1038.6 mb - 0.00 in0.0 mm 0.00 in0.0 mm
01:35 AM 72.5°F22.5°C 72.2°F22.3°C 99% 1.2 mph NW1.9 kmh NW 1.2 mph1.9 kmh 30.67 in1038.6 mb - 0.00 in0.0 mm 0.00 in0.0 mm
01:40 AM 72.7°F22.6°C 72.4°F22.4°C 99% 1.2 mph SW1.9 kmh SW 2.3 mph3.7 kmh 30.67 in1038.6 mb - 0.00 in0.0 mm 0.00 in0.0 mm
01:45 AM 72.7°F22.6°C 72.4°F22.4°C 99% 1.2 mph NNE1.9 kmh NNE 1.2 mph1.9 kmh 30.70 in1039.6 mb - 0.00 in0.0 mm 0.00 in0.0 mm
01:50 AM 72.7°F22.6°C 72.4°F22.4°C 99% Calm Calm 1.2 mph1.9 kmh 30.70 in1039.6 mb - 0.00 in0.0 mm 0.00 in0.0 mm
01:55 AM 72.7°F22.6°C 72.4°F22.4°C 99% Calm Calm -- 30.72 in1040.3 mb - 0.00 in0.0 mm 0.00 in0.0 mm
02:00 AM 72.5°F22.5°C 72.2°F22.3°C 99% 1.2 mph SSE1.9 kmh SSE 1.2 mph1.9 kmh 30.72 in1040.3 mb - 0.00 in0.0 mm 0.00 in0.0 mm
02:10 AM 72.3°F22.4°C 72.0°F22.2°C 99% Calm Calm 1.2 mph1.9 kmh 30.72 in1040.3 mb - 0.00 in0.0 mm 0.00 in0.0 mm
02:15 AM 72.3°F22.4°C 72.0°F22.2°C 99% Calm Calm -- 30.72 in1040.3 mb - 0.00 in0.0 mm 0.00 in0.0 mm
02:20 AM 72.3°F22.4°C 72.0°F22.2°C 99% Calm Calm -- 30.75 in1041.3 mb - 0.00 in0.0 mm 0.00 in0.0 mm
02:25 AM 72.3°F22.4°C 72.0°F22.2°C 99% Calm Calm -- 30.75 in1041.3 mb - 0.00 in0.0 mm 0.00 in0.0 mm
02:30 AM 72.2°F22.3°C 71.9°F22.2°C 99% Calm Calm -- 30.78 in1042.3 mb - 0.00 in0.0 mm 0.00 in0.0 mm
02:35 AM 72.0°F22.2°C 71.7°F22.1°C 99% Calm Calm -- 30.78 in1042.3 mb - 0.00 in0.0 mm 0.00 in0.0 mm
02:40 AM 71.8°F22.1°C 71.5°F21.9°C 99% Calm Calm -- 30.78 in1042.3 mb - 0.00 in0.0 mm 0.00 in0.0 mm
02:45 AM 71.7°F22.1°C 71.4°F21.9°C 99% Calm Calm -- 30.78 in1042.3 mb - 0.00 in0.0 mm 0.00 in0.0 mm
02:50 AM 71.8°F22.1°C 71.5°F21.9°C 99% Calm Calm -- 30.78 in1042.3 mb - 0.00 in0.0 mm 0.00 in0.0 mm
02:55 AM 71.8°F22.1°C 71.5°F21.9°C 99% Calm Calm -- 30.80 in1043.0 mb - 0.00 in0.0 mm 0.00 in0.0 mm
03:00 AM 71.6°F22.0°C 71.3°F21.8°C 99% Calm Calm -- 30.80 in1043.0 mb - 0.00 in0.0 mm 0.00 in0.0 mm
03:10 AM 71.4°F21.9°C 71.1°F21.7°C 99% Calm Calm -- 30.83 in1044.0 mb - 0.00 in0.0 mm 0.00 in0.0 mm
03:15 AM 71.3°F21.8°C 71.0°F21.7°C 99% Calm Calm -- 30.83 in1044.0 mb - 0.00 in0.0 mm 0.00 in0.0 mm
03:20 AM 71.3°F21.8°C 71.0°F21.7°C 99% Calm Calm -- 30.85 in1044.7 mb - 0.00 in0.0 mm 0.00 in0.0 mm
03:25 AM 71.1°F21.7°C 70.8°F21.6°C 99% 2.3 mph S3.7 kmh S 1.2 mph1.9 kmh 30.85 in1044.7 mb - 0.00 in0.0 mm 0.00 in0.0 mm
03:30 AM 70.9°F21.6°C 70.6°F21.4°C 99% 2.3 mph S3.7 kmh S 2.3 mph3.7 kmh 30.91 in1046.7 mb - 0.00 in0.0 mm 0.00 in0.0 mm
03:35 AM 70.9°F21.6°C 70.6°F21.4°C 99% 2.3 mph SSW3.7 kmh SSW 1.2 mph1.9 kmh 30.91 in1046.7 mb - 0.00 in0.0 mm 0.00 in0.0 mm
03:40 AM 70.7°F21.5°C 70.4°F21.3°C 99% 1.2 mph SSW1.9 kmh SSW 2.3 mph3.7 kmh 30.91 in1046.7 mb - 0.00 in0.0 mm 0.00 in0.0 mm
03:45 AM 70.7°F21.5°C 70.4°F21.3°C 99% 3.5 mph S5.6 kmh S 3.5 mph5.6 kmh 30.93 in1047.4 mb - 0.00 in0.0 mm 0.00 in0.0 mm
03:50 AM 70.5°F21.4°C 70.2°F21.2°C 99% 2.3 mph S3.7 kmh S 2.3 mph3.7 kmh 30.93 in1047.4 mb - 0.00 in0.0 mm 0.00 in0.0 mm
03:55 AM 70.5°F21.4°C 70.2°F21.2°C 99% 2.3 mph SSW3.7 kmh SSW 2.3 mph3.7 kmh 31.00 in1049.8 mb - 0.00 in0.0 mm 0.00 in0.0 mm
04:00 AM 70.5°F21.4°C 70.2°F21.2°C 99% 1.2 mph WSW1.9 kmh WSW 2.3 mph3.7 kmh 31.00 in1049.8 mb - 0.00 in0.0 mm 0.00 in0.0 mm
04:10 AM 70.4°F21.3°C 70.1°F21.2°C 99% 1.2 mph WNW1.9 kmh WNW 1.2 mph1.9 kmh 31.05 in1051.5 mb - 0.00 in0.0 mm 0.00 in0.0 mm
04:15 AM 70.4°F21.3°C 70.1°F21.2°C 99% 1.2 mph N1.9 kmh N -- 31.05 in1051.5 mb - 0.00 in0.0 mm 0.00 in0.0 mm
04:20 AM 70.2°F21.2°C 69.9°F21.1°C 99% 1.2 mph ENE1.9 kmh ENE 1.2 mph1.9 kmh 31.10 in1053.2 mb - 0.00 in0.0 mm 0.00 in0.0 mm
04:25 AM 70.0°F21.1°C 69.7°F20.9°C 99% 1.2 mph N1.9 kmh N 2.3 mph3.7 kmh 31.10 in1053.2 mb - 0.00 in0.0 mm 0.00 in0.0 mm
04:30 AM 70.0°F21.1°C 69.7°F20.9°C 99% 1.2 mph NNE1.9 kmh NNE 1.2 mph1.9 kmh 31.19 in1056.2 mb - 0.00 in0.0 mm 0.00 in0.0 mm
04:35 AM 70.0°F21.1°C 69.7°F20.9°C 99% 2.3 mph WSW3.7 kmh WSW 2.3 mph3.7 kmh 31.19 in1056.2 mb - 0.00 in0.0 mm 0.00 in0.0 mm
04:40 AM 70.2°F21.2°C 69.9°F21.1°C 99% 2.3 mph SW3.7 kmh SW 2.3 mph3.7 kmh 31.19 in1056.2 mb - 0.00 in0.0 mm 0.00 in0.0 mm
04:45 AM 70.4°F21.3°C 70.1°F21.2°C 99% 2.3 mph SSW3.7 kmh SSW 3.5 mph5.6 kmh 31.28 in1059.3 mb - 0.00 in0.0 mm 0.00 in0.0 mm
04:50 AM 70.5°F21.4°C 70.2°F21.2°C 99% 2.3 mph S3.7 kmh S 2.3 mph3.7 kmh 31.28 in1059.3 mb - 0.00 in0.0 mm 0.00 in0.0 mm
04:55 AM 70.5°F21.4°C 70.2°F21.2°C 99% 1.2 mph S1.9 kmh S 1.2 mph1.9 kmh 31.32 in1060.6 mb - 0.00 in0.0 mm 0.00 in0.0 mm
05:00 AM 70.5°F21.4°C 70.2°F21.2°C 99% 2.3 mph SSW3.7 kmh SSW 2.3 mph3.7 kmh 31.32 in1060.6 mb - 0.00 in0.0 mm 0.00 in0.0 mm
05:10 AM 70.5°F21.4°C 70.2°F21.2°C 99% 2.3 mph SW3.7 kmh SW 2.3 mph3.7 kmh 31.34 in1061.3 mb - 0.00 in0.0 mm 0.00 in0.0 mm
05:15 AM 70.5°F21.4°C 70.2°F21.2°C 99% 2.3 mph W3.7 kmh W 2.3 mph3.7 kmh 31.34 in1061.3 mb - 0.00 in0.0 mm 0.00 in0.0 mm
05:20 AM 70.5°F21.4°C 70.2°F21.2°C 99% 2.3 mph SSW3.7 kmh SSW 2.3 mph3.7 kmh 31.35 in1061.6 mb - 0.00 in0.0 mm 0.00 in0.0 mm
05:25 AM 70.5°F21.4°C 70.2°F21.2°C 99% 2.3 mph SW3.7 kmh SW 3.5 mph5.6 kmh 31.35 in1061.6 mb - 0.00 in0.0 mm 0.00 in0.0 mm
05:30 AM 70.5°F21.4°C 70.2°F21.2°C 99% 2.3 mph WSW3.7 kmh WSW 3.5 mph5.6 kmh 31.41 in1063.7 mb - 0.00 in0.0 mm 0.00 in0.0 mm
05:35 AM 70.7°F21.5°C 70.4°F21.3°C 99% 3.5 mph SW5.6 kmh SW 4.6 mph7.4 kmh 31.41 in1063.7 mb - 0.00 in0.0 mm 0.00 in0.0 mm
05:40 AM 70.9°F21.6°C 70.6°F21.4°C 99% 3.5 mph WSW5.6 kmh WSW 3.5 mph5.6 kmh 31.41 in1063.7 mb - 0.00 in0.0 mm 0.00 in0.0 mm
05:45 AM 70.9°F21.6°C 70.6°F21.4°C 99% 3.5 mph SW5.6 kmh SW 4.6 mph7.4 kmh 31.46 in1065.4 mb - 0.00 in0.0 mm 0.00 in0.0 mm
05:50 AM 71.1°F21.7°C 70.8°F21.6°C 99% 2.3 mph SSW3.7 kmh SSW 2.3 mph3.7 kmh 31.46 in1065.4 mb - 0.00 in0.0 mm 0.00 in0.0 mm
05:55 AM 71.1°F21.7°C 70.8°F21.6°C 99% 2.3 mph SW3.7 kmh SW 2.3 mph3.7 kmh 31.49 in1066.4 mb - 0.00 in0.0 mm 0.00 in0.0 mm
06:00 AM 71.1°F21.7°C 70.8°F21.6°C 99% 2.3 mph SW3.7 kmh SW 2.3 mph3.7 kmh 31.49 in1066.4 mb - 0.00 in0.0 mm 0.00 in0.0 mm
06:10 AM 71.1°F21.7°C 70.8°F21.6°C 99% 2.3 mph SW3.7 kmh SW 3.5 mph5.6 kmh 31.48 in1066.0 mb - 0.00 in0.0 mm 0.00 in0.0 mm
06:15 AM 71.1°F21.7°C 70.8°F21.6°C 99% 2.3 mph SSW3.7 kmh SSW 4.6 mph7.4 kmh 31.48 in1066.0 mb - 0.00 in0.0 mm 0.00 in0.0 mm
06:20 AM 71.3°F21.8°C 71.0°F21.7°C 99% 2.3 mph SW3.7 kmh SW 3.5 mph5.6 kmh 31.53 in1067.7 mb - 0.00 in0.0 mm 0.00 in0.0 mm
06:25 AM 71.4°F21.9°C 71.1°F21.7°C 99% 2.3 mph SSW3.7 kmh SSW 2.3 mph3.7 kmh 31.53 in1067.7 mb - 0.00 in0.0 mm 0.00 in0.0 mm
06:30 AM 71.4°F21.9°C 71.1°F21.7°C 99% 3.5 mph SW5.6 kmh SW 4.6 mph7.4 kmh 31.71 in1073.8 mb - 0.00 in0.0 mm 0.00 in0.0 mm
06:35 AM 71.6°F22.0°C 71.3°F21.8°C 99% 2.3 mph SW3.7 kmh SW 3.5 mph5.6 kmh 31.71 in1073.8 mb - 0.00 in0.0 mm 0.00 in0.0 mm
06:40 AM 71.8°F22.1°C 71.5°F21.9°C 99% 2.3 mph SW3.7 kmh SW 2.3 mph3.7 kmh 31.81 in1077.2 mb - 0.00 in0.0 mm 0.00 in0.0 mm
06:45 AM 71.8°F22.1°C 71.5°F21.9°C 99% 3.5 mph SW5.6 kmh SW 3.5 mph5.6 kmh 31.88 in1079.6 mb - 0.00 in0.0 mm 0.00 in0.0 mm
06:50 AM 72.0°F22.2°C 71.7°F22.1°C 99% 2.3 mph WSW3.7 kmh WSW 3.5 mph5.6 kmh 31.88 in1079.6 mb - 0.00 in0.0 mm 0.00 in0.0 mm
06:55 AM 72.2°F22.3°C 71.9°F22.2°C 99% 2.3 mph SW3.7 kmh SW 2.3 mph3.7 kmh 31.88 in1079.6 mb - 0.00 in0.0 mm 0.00 in0.0 mm
07:00 AM 72.5°F22.5°C 72.2°F22.3°C 99% 3.5 mph WSW5.6 kmh WSW 2.3 mph3.7 kmh 31.88 in1079.6 mb - 0.00 in0.0 mm 0.00 in0.0 mm
07:10 AM 73.3°F22.9°C 73.0°F22.8°C 99% 3.5 mph WSW5.6 kmh WSW 3.5 mph5.6 kmh 31.88 in1079.6 mb - 0.00 in0.0 mm 0.00 in0.0 mm
07:15 AM 73.4°F23.0°C 73.1°F22.8°C 99% 3.5 mph WSW5.6 kmh WSW 3.5 mph5.6 kmh 31.88 in1079.6 mb - 0.00 in0.0 mm 0.00 in0.0 mm
07:20 AM 73.7°F23.2°C 73.4°F23.0°C 99% 2.3 mph WSW3.7 kmh WSW 3.5 mph5.6 kmh 31.88 in1079.6 mb - 0.00 in0.0 mm 0.00 in0.0 mm
07:25 AM 74.0°F23.3°C 73.7°F23.2°C 99% 2.3 mph WSW3.7 kmh WSW 2.3 mph3.7 kmh 31.88 in1079.6 mb - 0.00 in0.0 mm 0.00 in0.0 mm
07:30 AM 74.1°F23.4°C 73.5°F23.1°C 98% 3.5 mph SSW5.6 kmh SSW 3.5 mph5.6 kmh 31.88 in1079.6 mb - 0.00 in0.0 mm 0.00 in0.0 mm
07:35 AM 74.1°F23.4°C 73.5°F23.1°C 98% 3.5 mph SW5.6 kmh SW 4.6 mph7.4 kmh 31.88 in1079.6 mb - 0.00 in0.0 mm 0.00 in0.0 mm
07:40 AM 74.1°F23.4°C 73.5°F23.1°C 98% 3.5 mph SW5.6 kmh SW 3.5 mph5.6 kmh 31.88 in1079.6 mb - 0.00 in0.0 mm 0.00 in0.0 mm
07:45 AM 74.4°F23.6°C 73.5°F23.1°C 97% 3.5 mph SW5.6 kmh SW 3.5 mph5.6 kmh 31.88 in1079.6 mb - 0.00 in0.0 mm 0.00 in0.0 mm
07:50 AM 74.7°F23.7°C 73.8°F23.2°C 97% 3.5 mph SSW5.6 kmh SSW 4.6 mph7.4 kmh 31.88 in1079.6 mb - 0.00 in0.0 mm 0.00 in0.0 mm
07:55 AM 74.9°F23.8°C 73.7°F23.2°C 96% 3.5 mph S5.6 kmh S 3.5 mph5.6 kmh 31.88 in1079.6 mb - 0.00 in0.0 mm 0.00 in0.0 mm
08:00 AM 75.0°F23.9°C 73.8°F23.2°C 96% 3.5 mph SW5.6 kmh SW 4.6 mph7.4 kmh 31.88 in1079.6 mb - 0.00 in0.0 mm 0.00 in0.0 mm
08:10 AM 75.2°F24.0°C 74.0°F23.3°C 96% 3.5 mph SSW5.6 kmh SSW 4.6 mph7.4 kmh 31.88 in1079.6 mb - 0.00 in0.0 mm 0.00 in0.0 mm
08:15 AM 75.6°F24.2°C 73.8°F23.2°C 94% 3.5 mph S5.6 kmh S 3.5 mph5.6 kmh 31.88 in1079.6 mb - 0.00 in0.0 mm 0.00 in0.0 mm
08:20 AM 76.1°F24.5°C 74.2°F23.4°C 94% 3.5 mph WSW5.6 kmh WSW 3.5 mph5.6 kmh 31.88 in1079.6 mb - 0.00 in0.0 mm 0.00 in0.0 mm
08:25 AM 76.1°F24.5°C 73.9°F23.3°C 93% 3.5 mph SW5.6 kmh SW 4.6 mph7.4 kmh 31.88 in1079.6 mb - 0.00 in0.0 mm 0.00 in0.0 mm
08:30 AM 76.3°F24.6°C 74.1°F23.4°C 93% 3.5 mph SW5.6 kmh SW 4.6 mph7.4 kmh 31.88 in1079.6 mb - 0.00 in0.0 mm 0.00 in0.0 mm
08:35 AM 77.0°F25.0°C 74.5°F23.6°C 92% 3.5 mph SW5.6 kmh SW 4.6 mph7.4 kmh 31.88 in1079.6 mb - 0.00 in0.0 mm 0.00 in0.0 mm
08:40 AM 77.2°F25.1°C 74.7°F23.7°C 92% 3.5 mph SW5.6 kmh SW 4.6 mph7.4 kmh 31.88 in1079.6 mb - 0.00 in0.0 mm 0.00 in0.0 mm
08:45 AM 77.2°F25.1°C 74.7°F23.7°C 92% 3.5 mph S5.6 kmh S 3.5 mph5.6 kmh 31.88 in1079.6 mb - 0.00 in0.0 mm 0.00 in0.0 mm
08:50 AM 77.2°F25.1°C 74.7°F23.7°C 92% 3.5 mph SW5.6 kmh SW 4.6 mph7.4 kmh 31.88 in1079.6 mb - 0.00 in0.0 mm 0.00 in0.0 mm
08:55 AM 77.4°F25.2°C 74.5°F23.6°C 91% 3.5 mph WSW5.6 kmh WSW 3.5 mph5.6 kmh 31.88 in1079.6 mb - 0.00 in0.0 mm 0.00 in0.0 mm
09:00 AM 77.2°F25.1°C 74.4°F23.6°C 91% 3.5 mph WSW5.6 kmh WSW 4.6 mph7.4 kmh 31.88 in1079.6 mb - 0.00 in0.0 mm 0.00 in0.0 mm
09:10 AM 78.1°F25.6°C 74.9°F23.8°C 90% 3.5 mph SW5.6 kmh SW 4.6 mph7.4 kmh 31.86 in1078.9 mb - 0.00 in0.0 mm 0.00 in0.0 mm
09:15 AM 78.3°F25.7°C 75.1°F23.9°C 90% 3.5 mph SW5.6 kmh SW 4.6 mph7.4 kmh 31.86 in1078.9 mb - 0.00 in0.0 mm 0.00 in0.0 mm
09:20 AM 78.5°F25.8°C 74.9°F23.8°C 89% 3.5 mph SW5.6 kmh SW 3.5 mph5.6 kmh 31.71 in1073.8 mb - 0.00 in0.0 mm 0.00 in0.0 mm
09:25 AM 79.8°F26.6°C 75.6°F24.2°C 87% 2.3 mph SSW3.7 kmh SSW 3.5 mph5.6 kmh 31.71 in1073.8 mb - 0.00 in0.0 mm 0.00 in0.0 mm
09:30 AM 79.0°F26.1°C 75.2°F24.0°C 88% 3.5 mph SW5.6 kmh SW 4.6 mph7.4 kmh 31.58 in1069.4 mb - 0.00 in0.0 mm 0.00 in0.0 mm
09:35 AM 78.5°F25.8°C 74.6°F23.7°C 88% 3.5 mph SW5.6 kmh SW 4.6 mph7.4 kmh 31.58 in1069.4 mb - 0.00 in0.0 mm 0.00 in0.0 mm
09:40 AM 78.3°F25.7°C 74.8°F23.8°C 89% 4.6 mph SSW7.4 kmh SSW 4.6 mph7.4 kmh 31.52 in1067.4 mb - 0.00 in0.0 mm 0.00 in0.0 mm
09:45 AM 78.3°F25.7°C 74.8°F23.8°C 89% 4.6 mph SSW7.4 kmh SSW 5.8 mph9.3 kmh 31.42 in1064.0 mb - 0.00 in0.0 mm 0.00 in0.0 mm
09:50 AM 78.7°F25.9°C 75.1°F23.9°C 89% 3.5 mph SW5.6 kmh SW 5.8 mph9.3 kmh 31.42 in1064.0 mb - 0.00 in0.0 mm 0.00 in0.0 mm
09:55 AM 78.8°F26.0°C 74.9°F23.8°C 88% 4.6 mph SW7.4 kmh SW 4.6 mph7.4 kmh 31.23 in1057.6 mb - 0.00 in0.0 mm 0.00 in0.0 mm
10:00 AM 79.4°F26.3°C 75.2°F24.0°C 87% 3.5 mph SSW5.6 kmh SSW 4.6 mph7.4 kmh 31.23 in1057.6 mb - 0.00 in0.0 mm 0.00 in0.0 mm
10:10 AM 79.7°F26.5°C 75.5°F24.2°C 87% 3.5 mph SSW5.6 kmh SSW 3.5 mph5.6 kmh 31.04 in1051.1 mb - 0.00 in0.0 mm 0.00 in0.0 mm
10:15 AM 80.4°F26.9°C 75.8°F24.3°C 86% 3.5 mph SW5.6 kmh SW 4.6 mph7.4 kmh 31.04 in1051.1 mb - 0.00 in0.0 mm 0.00 in0.0 mm
10:20 AM 80.1°F26.7°C 75.5°F24.2°C 86% 3.5 mph SSW5.6 kmh SSW 4.6 mph7.4 kmh 30.86 in1045.0 mb - 0.00 in0.0 mm 0.00 in0.0 mm
10:25 AM 80.3°F26.8°C 75.7°F24.3°C 86% 4.6 mph SW7.4 kmh SW 4.6 mph7.4 kmh 30.86 in1045.0 mb - 0.00 in0.0 mm 0.00 in0.0 mm
10:30 AM 80.8°F27.1°C 75.8°F24.3°C 85% 3.5 mph S5.6 kmh S 4.6 mph7.4 kmh 30.73 in1040.6 mb - 0.00 in0.0 mm 0.00 in0.0 mm
10:35 AM 81.0°F27.2°C 76.0°F24.4°C 85% 5.8 mph WSW9.3 kmh WSW 5.8 mph9.3 kmh 30.73 in1040.6 mb - 0.00 in0.0 mm 0.00 in0.0 mm
10:40 AM 80.9°F27.2°C 75.9°F24.4°C 85% 3.5 mph SW5.6 kmh SW 4.6 mph7.4 kmh 30.70 in1039.6 mb - 0.00 in0.0 mm 0.00 in0.0 mm
10:45 AM 81.5°F27.5°C 76.5°F24.7°C 85% 3.5 mph S5.6 kmh S 4.6 mph7.4 kmh 30.64 in1037.6 mb - 0.00 in0.0 mm 0.00 in0.0 mm
10:50 AM 81.7°F27.6°C 76.4°F24.7°C 84% 3.5 mph SW5.6 kmh SW 3.5 mph5.6 kmh 30.64 in1037.6 mb - 0.00 in0.0 mm 0.00 in0.0 mm
10:55 AM 81.4°F27.4°C 76.1°F24.5°C 84% 3.5 mph WSW5.6 kmh WSW 4.6 mph7.4 kmh 30.51 in1033.2 mb - 0.00 in0.0 mm 0.00 in0.0 mm
11:00 AM 80.9°F27.2°C 76.0°F24.4°C 85% 4.6 mph SW7.4 kmh SW 4.6 mph7.4 kmh 30.51 in1033.2 mb - 0.00 in0.0 mm 0.00 in0.0 mm
11:10 AM 80.2°F26.8°C 76.3°F24.6°C 88% 3.5 mph SW5.6 kmh SW 3.5 mph5.6 kmh 30.42 in1030.1 mb - 0.00 in0.0 mm 0.00 in0.0 mm
11:15 AM 80.4°F26.9°C 76.5°F24.7°C 88% 2.3 mph SSW3.7 kmh SSW 3.5 mph5.6 kmh 30.42 in1030.1 mb - 0.00 in0.0 mm 0.00 in0.0 mm
11:20 AM 80.6°F27.0°C 76.7°F24.8°C 88% 2.3 mph SSW3.7 kmh SSW 2.3 mph3.7 kmh 30.41 in1029.8 mb - 0.00 in0.0 mm 0.00 in0.0 mm
11:25 AM 81.4°F27.4°C 76.8°F24.9°C 86% 2.3 mph S3.7 kmh S 3.5 mph5.6 kmh 30.41 in1029.8 mb - 0.00 in0.0 mm 0.00 in0.0 mm
11:30 AM 81.5°F27.5°C 76.9°F24.9°C 86% 2.3 mph SW3.7 kmh SW 2.3 mph3.7 kmh 30.35 in1027.8 mb - 0.00 in0.0 mm 0.00 in0.0 mm
11:35 AM 81.5°F27.5°C 76.9°F24.9°C 86% 2.3 mph SW3.7 kmh SW 2.3 mph3.7 kmh 30.35 in1027.8 mb - 0.00 in0.0 mm 0.00 in0.0 mm
11:40 AM 81.6°F27.6°C 76.6°F24.8°C 85% 3.5 mph SW5.6 kmh SW 3.5 mph5.6 kmh 30.33 in1027.1 mb - 0.00 in0.0 mm 0.00 in0.0 mm
11:45 AM 81.7°F27.6°C 77.1°F25.1°C 86% 3.5 mph SW5.6 kmh SW 3.5 mph5.6 kmh 30.29 in1025.7 mb - 0.00 in0.0 mm 0.00 in0.0 mm
11:50 AM 81.7°F27.6°C 77.1°F25.1°C 86% 2.3 mph SW3.7 kmh SW 2.3 mph3.7 kmh 30.29 in1025.7 mb - 0.00 in0.0 mm 0.00 in0.0 mm
11:55 AM 82.2°F27.9°C 76.9°F24.9°C 84% 3.5 mph SW5.6 kmh SW 4.6 mph7.4 kmh 30.32 in1026.8 mb - 0.00 in0.0 mm 0.00 in0.0 mm
12:00 PM 82.4°F28.0°C 77.1°F25.1°C 84% 3.5 mph SW5.6 kmh SW 3.5 mph5.6 kmh 30.32 in1026.8 mb - 0.00 in0.0 mm 0.00 in0.0 mm
12:10 PM 82.4°F28.0°C 77.1°F25.1°C 84% 3.5 mph SW5.6 kmh SW 4.6 mph7.4 kmh 30.27 in1025.1 mb - 0.00 in0.0 mm 0.00 in0.0 mm
12:15 PM 82.4°F28.0°C 77.1°F25.1°C 84% 3.5 mph SW5.6 kmh SW 4.6 mph7.4 kmh 30.27 in1025.1 mb - 0.00 in0.0 mm 0.00 in0.0 mm
12:20 PM 82.8°F28.2°C 77.4°F25.2°C 84% 4.6 mph SSW7.4 kmh SSW 5.8 mph9.3 kmh 30.21 in1023.0 mb - 0.00 in0.0 mm 0.00 in0.0 mm
12:25 PM 83.1°F28.4°C 77.7°F25.4°C 84% 4.6 mph SSW7.4 kmh SSW 4.6 mph7.4 kmh 30.21 in1023.0 mb - 0.00 in0.0 mm 0.00 in0.0 mm
12:30 PM 82.8°F28.2°C 77.8°F25.4°C 85% 4.6 mph SSW7.4 kmh SSW 4.6 mph7.4 kmh 30.13 in1020.3 mb - 0.00 in0.0 mm 0.00 in0.0 mm
12:35 PM 82.4°F28.0°C 77.4°F25.2°C 85% 4.6 mph SSW7.4 kmh SSW 4.6 mph7.4 kmh 30.13 in1020.3 mb - 0.00 in0.0 mm 0.00 in0.0 mm
12:40 PM 82.7°F28.2°C 77.7°F25.4°C 85% 4.6 mph SSW7.4 kmh SSW 4.6 mph7.4 kmh 30.12 in1020.0 mb - 0.00 in0.0 mm 0.00 in0.0 mm
12:45 PM 82.9°F28.3°C 77.6°F25.3°C 84% 4.6 mph SW7.4 kmh SW 4.6 mph7.4 kmh 30.05 in1017.6 mb - 0.00 in0.0 mm 0.00 in0.0 mm
12:50 PM 83.1°F28.4°C 78.1°F25.6°C 85% 3.5 mph SSW5.6 kmh SSW 4.6 mph7.4 kmh 30.05 in1017.6 mb - 0.00 in0.0 mm 0.00 in0.0 mm
12:55 PM 82.6°F28.1°C 77.6°F25.3°C 85% 3.5 mph SSW5.6 kmh SSW 4.6 mph7.4 kmh 29.87 in1011.5 mb - 0.00 in0.0 mm 0.00 in0.0 mm
01:00 PM 83.2°F28.4°C 78.2°F25.7°C 85% 3.5 mph SW5.6 kmh SW 4.6 mph7.4 kmh 29.87 in1011.5 mb - 0.00 in0.0 mm 0.00 in0.0 mm
01:10 PM 83.9°F28.8°C 78.5°F25.8°C 84% 3.5 mph SSW5.6 kmh SSW 4.6 mph7.4 kmh 29.72 in1006.4 mb - 0.00 in0.0 mm 0.00 in0.0 mm
01:15 PM 83.8°F28.8°C 78.4°F25.8°C 84% 3.5 mph SW5.6 kmh SW 4.6 mph7.4 kmh 29.72 in1006.4 mb - 0.00 in0.0 mm 0.00 in0.0 mm
01:20 PM 83.8°F28.8°C 78.1°F25.6°C 83% 3.5 mph SW5.6 kmh SW 4.6 mph7.4 kmh 29.59 in1002.0 mb - 0.00 in0.0 mm 0.00 in0.0 mm
01:25 PM 83.9°F28.8°C 78.2°F25.7°C 83% 3.5 mph S5.6 kmh S 4.6 mph7.4 kmh 29.59 in1002.0 mb - 0.00 in0.0 mm 0.00 in0.0 mm
01:30 PM 84.0°F28.9°C 78.3°F25.7°C 83% 3.5 mph SW5.6 kmh SW 3.5 mph5.6 kmh 29.47 in998.0 mb - 0.00 in0.0 mm 0.00 in0.0 mm
01:35 PM 85.1°F29.5°C 78.2°F25.7°C 80% 3.5 mph SW5.6 kmh SW 4.6 mph7.4 kmh 29.47 in998.0 mb - 0.00 in0.0 mm 0.00 in0.0 mm
01:40 PM 86.0°F30.0°C 78.3°F25.7°C 78% 3.5 mph SW5.6 kmh SW 4.6 mph7.4 kmh 29.46 in997.6 mb - 0.00 in0.0 mm 0.00 in0.0 mm
01:45 PM 86.6°F30.3°C 78.1°F25.6°C 76% 3.5 mph SW5.6 kmh SW 4.6 mph7.4 kmh 29.29 in991.9 mb - 0.00 in0.0 mm 0.00 in0.0 mm
01:50 PM 87.0°F30.6°C 77.7°F25.4°C 74% 3.5 mph SW5.6 kmh SW 4.6 mph7.4 kmh 29.29 in991.9 mb - 0.00 in0.0 mm 0.00 in0.0 mm
01:55 PM 87.1°F30.6°C 77.8°F25.4°C 74% 3.5 mph SSW5.6 kmh SSW 4.6 mph7.4 kmh 29.09 in985.1 mb - 0.00 in0.0 mm 0.00 in0.0 mm
02:00 PM 87.6°F30.9°C 77.9°F25.5°C 73% 3.5 mph SSW5.6 kmh SSW 3.5 mph5.6 kmh 29.09 in985.1 mb - 0.00 in0.0 mm 0.00 in0.0 mm
02:10 PM 88.0°F31.1°C 77.8°F25.4°C 72% 3.5 mph SW5.6 kmh SW 4.6 mph7.4 kmh 28.85 in977.0 mb - 0.00 in0.0 mm 0.00 in0.0 mm
02:15 PM 87.8°F31.0°C 77.7°F25.4°C 72% 3.5 mph SW5.6 kmh SW 4.6 mph7.4 kmh 28.85 in977.0 mb - 0.00 in0.0 mm 0.00 in0.0 mm
02:20 PM 88.2°F31.2°C 77.6°F25.3°C 71% 3.5 mph SW5.6 kmh SW 3.5 mph5.6 kmh 28.62 in969.2 mb - 0.00 in0.0 mm 0.00 in0.0 mm
02:25 PM 88.0°F31.1°C 77.0°F25.0°C 70% 3.5 mph SW5.6 kmh SW 4.6 mph7.4 kmh 28.62 in969.2 mb - 0.00 in0.0 mm 0.00 in0.0 mm
02:30 PM 87.3°F30.7°C 77.2°F25.1°C 72% 3.5 mph S5.6 kmh S 4.6 mph7.4 kmh 28.43 in962.8 mb - 0.00 in0.0 mm 0.00 in0.0 mm
02:35 PM 87.2°F30.7°C 77.4°F25.2°C 73% 3.5 mph SW5.6 kmh SW 3.5 mph5.6 kmh 28.43 in962.8 mb - 0.00 in0.0 mm 0.00 in0.0 mm
02:40 PM 86.9°F30.5°C 77.2°F25.1°C 73% 3.5 mph SW5.6 kmh SW 3.5 mph5.6 kmh 28.43 in962.8 mb - 0.00 in0.0 mm 0.00 in0.0 mm
02:45 PM 87.1°F30.6°C 77.4°F25.2°C 73% 3.5 mph SSW5.6 kmh SSW 4.6 mph7.4 kmh 28.32 in959.0 mb - 0.00 in0.0 mm 0.00 in0.0 mm
02:50 PM 87.2°F30.7°C 77.0°F25.0°C 72% 3.5 mph WSW5.6 kmh WSW 4.6 mph7.4 kmh 28.32 in959.0 mb - 0.00 in0.0 mm 0.00 in0.0 mm
02:55 PM 87.2°F30.7°C 77.4°F25.2°C 73% 3.5 mph S5.6 kmh S 3.5 mph5.6 kmh 28.21 in955.3 mb - 0.00 in0.0 mm 0.00 in0.0 mm
03:00 PM 88.4°F31.3°C 76.9°F24.9°C 69% 3.5 mph SW5.6 kmh SW 4.6 mph7.4 kmh 28.21 in955.3 mb - 0.00 in0.0 mm 0.00 in0.0 mm
03:10 PM 88.4°F31.3°C 77.8°F25.4°C 71% 3.5 mph SW5.6 kmh SW 3.5 mph5.6 kmh 28.08 in950.9 mb - 0.00 in0.0 mm 0.00 in0.0 mm
03:15 PM 88.5°F31.4°C 77.0°F25.0°C 69% 3.5 mph SW5.6 kmh SW 3.5 mph5.6 kmh 28.08 in950.9 mb - 0.00 in0.0 mm 0.00 in0.0 mm
03:20 PM 88.4°F31.3°C 77.8°F25.4°C 71% 3.5 mph SW5.6 kmh SW 3.5 mph5.6 kmh 27.93 in945.8 mb - 0.00 in0.0 mm 0.00 in0.0 mm
03:25 PM 88.9°F31.6°C 77.0°F25.0°C 68% 3.5 mph SSW5.6 kmh SSW 3.5 mph5.6 kmh 27.93 in945.8 mb - 0.00 in0.0 mm 0.00 in0.0 mm
03:30 PM 89.1°F31.7°C 77.1°F25.1°C 68% 2.3 mph SW3.7 kmh SW 3.5 mph5.6 kmh 27.80 in941.4 mb - 0.00 in0.0 mm 0.00 in0.0 mm
03:35 PM 89.1°F31.7°C 77.6°F25.3°C 69% 3.5 mph S5.6 kmh S 3.5 mph5.6 kmh 27.80 in941.4 mb - 0.00 in0.0 mm 0.00 in0.0 mm
03:40 PM 88.3°F31.3°C 77.7°F25.4°C 71% 3.5 mph SW5.6 kmh SW 3.5 mph5.6 kmh 27.80 in941.4 mb - 0.00 in0.0 mm 0.00 in0.0 mm
03:45 PM 87.6°F30.9°C 77.8°F25.4°C 73% 3.5 mph SSW5.6 kmh SSW 3.5 mph5.6 kmh 27.64 in936.0 mb - 0.00 in0.0 mm 0.00 in0.0 mm
03:50 PM 87.6°F30.9°C 78.3°F25.7°C 74% 3.5 mph SSW5.6 kmh SSW 3.5 mph5.6 kmh 27.64 in936.0 mb - 0.00 in0.0 mm 0.00 in0.0 mm
03:55 PM 87.1°F30.6°C 79.0°F26.1°C 77% 3.5 mph SW5.6 kmh SW 3.5 mph5.6 kmh 27.54 in932.6 mb - 0.00 in0.0 mm 0.00 in0.0 mm
04:00 PM 87.9°F31.1°C 79.4°F26.3°C 76% 2.3 mph W3.7 kmh W 3.5 mph5.6 kmh 27.54 in932.6 mb - 0.00 in0.0 mm 0.00 in0.0 mm
04:10 PM 87.5°F30.8°C 79.4°F26.3°C 77% 3.5 mph SW5.6 kmh SW 3.5 mph5.6 kmh 27.35 in926.2 mb - 0.00 in0.0 mm 0.00 in0.0 mm
04:15 PM 87.8°F31.0°C 78.5°F25.8°C 74% 3.5 mph SSW5.6 kmh SSW 3.5 mph5.6 kmh 27.35 in926.2 mb - 0.00 in0.0 mm 0.00 in0.0 mm
04:20 PM 88.0°F31.1°C 78.7°F25.9°C 74% 3.5 mph S5.6 kmh S 3.5 mph5.6 kmh 27.16 in919.7 mb - 0.00 in0.0 mm 0.00 in0.0 mm
04:25 PM 88.5°F31.4°C 77.9°F25.5°C 71% 2.3 mph SW3.7 kmh SW 3.5 mph5.6 kmh 27.16 in919.7 mb - 0.00 in0.0 mm 0.00 in0.0 mm
04:30 PM 88.6°F31.4°C 77.1°F25.1°C 69% 3.5 mph SW5.6 kmh SW 3.5 mph5.6 kmh 26.99 in914.0 mb - 0.00 in0.0 mm 0.00 in0.0 mm
04:35 PM 88.6°F31.4°C 76.2°F24.6°C 67% 3.5 mph SSW5.6 kmh SSW 3.5 mph5.6 kmh 26.99 in914.0 mb - 0.00 in0.0 mm 0.00 in0.0 mm
04:40 PM 88.6°F31.4°C 76.7°F24.8°C 68% 3.5 mph SSW5.6 kmh SSW 3.5 mph5.6 kmh 26.99 in914.0 mb - 0.00 in0.0 mm 0.00 in0.0 mm
04:45 PM 87.6°F30.9°C 79.9°F26.6°C 78% 2.3 mph S3.7 kmh S 2.3 mph3.7 kmh 26.86 in909.6 mb - 0.00 in0.0 mm 0.00 in0.0 mm
04:50 PM 87.3°F30.7°C 81.2°F27.3°C 82% 2.3 mph S3.7 kmh S 3.5 mph5.6 kmh 26.86 in909.6 mb - 0.00 in0.0 mm 0.00 in0.0 mm
04:55 PM 87.4°F30.8°C 80.8°F27.1°C 81% 2.3 mph S3.7 kmh S 2.3 mph3.7 kmh 26.78 in906.9 mb - 0.00 in0.0 mm 0.00 in0.0 mm
05:00 PM 87.3°F30.7°C 79.2°F26.2°C 77% 2.3 mph S3.7 kmh S 3.5 mph5.6 kmh 26.78 in906.9 mb - 0.00 in0.0 mm 0.00 in0.0 mm
05:10 PM 88.0°F31.1°C 78.6°F25.9°C 74% 2.3 mph SSW3.7 kmh SSW 2.3 mph3.7 kmh 26.75 in905.9 mb - 0.00 in0.0 mm 0.00 in0.0 mm
05:15 PM 87.6°F30.9°C 78.3°F25.7°C 74% 2.3 mph S3.7 kmh S 3.5 mph5.6 kmh 26.75 in905.9 mb - 0.00 in0.0 mm 0.00 in0.0 mm
05:20 PM 86.7°F30.4°C 79.0°F26.1°C 78% 2.3 mph SSE3.7 kmh SSE 2.3 mph3.7 kmh 26.75 in905.9 mb - 0.00 in0.0 mm 0.00 in0.0 mm
05:25 PM 86.7°F30.4°C 79.8°F26.6°C 80% 2.3 mph S3.7 kmh S 3.5 mph5.6 kmh 26.75 in905.9 mb - 0.00 in0.0 mm 0.00 in0.0 mm
05:30 PM 86.4°F30.2°C 79.9°F26.6°C 81% 2.3 mph S3.7 kmh S 2.3 mph3.7 kmh 26.74 in905.5 mb - 0.00 in0.0 mm 0.00 in0.0 mm
05:35 PM 85.8°F29.9°C 80.1°F26.7°C 83% 2.3 mph SSE3.7 kmh SSE 2.3 mph3.7 kmh 26.74 in905.5 mb - 0.00 in0.0 mm 0.00 in0.0 mm
05:40 PM 85.6°F29.8°C 79.8°F26.6°C 83% 2.3 mph S3.7 kmh S 2.3 mph3.7 kmh 26.74 in905.5 mb - 0.00 in0.0 mm 0.00 in0.0 mm
05:45 PM 85.3°F29.6°C 79.1°F26.2°C 82% 2.3 mph S3.7 kmh S 2.3 mph3.7 kmh 26.78 in906.9 mb - 0.00 in0.0 mm 0.00 in0.0 mm
05:50 PM 85.0°F29.4°C 78.5°F25.8°C 81% 3.5 mph S5.6 kmh S 4.6 mph7.4 kmh 26.78 in906.9 mb - 0.00 in0.0 mm 0.00 in0.0 mm
05:55 PM 84.8°F29.3°C 79.0°F26.1°C 83% 3.5 mph S5.6 kmh S 4.6 mph7.4 kmh 26.93 in912.0 mb - 0.00 in0.0 mm 0.00 in0.0 mm
06:00 PM 84.5°F29.2°C 79.8°F26.6°C 86% 2.3 mph SE3.7 kmh SE 2.3 mph3.7 kmh 26.93 in912.0 mb - 0.00 in0.0 mm 0.00 in0.0 mm
06:10 PM 84.2°F29.0°C 79.9°F26.6°C 87% 2.3 mph S3.7 kmh S 2.3 mph3.7 kmh 27.06 in916.4 mb - 0.00 in0.0 mm 0.00 in0.0 mm
06:15 PM 84.0°F28.9°C 79.3°F26.3°C 86% 2.3 mph SE3.7 kmh SE 2.3 mph3.7 kmh 27.06 in916.4 mb - 0.00 in0.0 mm 0.00 in0.0 mm
06:20 PM 83.9°F28.8°C 79.2°F26.2°C 86% 2.3 mph SW3.7 kmh SW 3.5 mph5.6 kmh 27.08 in917.0 mb - 0.00 in0.0 mm 0.00 in0.0 mm
06:25 PM 83.9°F28.8°C 78.5°F25.8°C 84% 2.3 mph S3.7 kmh S 3.5 mph5.6 kmh 27.08 in917.0 mb - 0.00 in0.0 mm 0.00 in0.0 mm
06:30 PM 83.1°F28.4°C 78.5°F25.8°C 86% 2.3 mph S3.7 kmh S 3.5 mph5.6 kmh 27.09 in917.4 mb - 0.00 in0.0 mm 0.00 in0.0 mm
06:35 PM 83.0°F28.3°C 78.7°F25.9°C 87% 2.3 mph S3.7 kmh S 2.3 mph3.7 kmh 27.09 in917.4 mb - 0.00 in0.0 mm 0.00 in0.0 mm
06:40 PM 82.7°F28.2°C 78.4°F25.8°C 87% 2.3 mph SSW3.7 kmh SSW 3.5 mph5.6 kmh 27.14 in919.1 mb - 0.00 in0.0 mm 0.00 in0.0 mm
06:45 PM 82.1°F27.8°C 78.2°F25.7°C 88% 2.3 mph S3.7 kmh S 2.3 mph3.7 kmh 27.21 in921.4 mb - 0.00 in0.0 mm 0.00 in0.0 mm
06:50 PM 82.0°F27.8°C 78.4°F25.8°C 89% 2.3 mph S3.7 kmh S 2.3 mph3.7 kmh 27.21 in921.4 mb - 0.00 in0.0 mm 0.00 in0.0 mm
06:55 PM 81.6°F27.6°C 78.1°F25.6°C 89% 2.3 mph S3.7 kmh S 2.3 mph3.7 kmh 27.27 in923.5 mb - 0.00 in0.0 mm 0.00 in0.0 mm
07:00 PM 82.4°F28.0°C 78.8°F26.0°C 89% 1.2 mph SSE1.9 kmh SSE 1.2 mph1.9 kmh 27.27 in923.5 mb - 0.00 in0.0 mm 0.00 in0.0 mm
07:10 PM 81.4°F27.4°C 78.5°F25.8°C 91% 2.3 mph SE3.7 kmh SE 3.5 mph5.6 kmh 27.24 in922.5 mb - 0.00 in0.0 mm 0.00 in0.0 mm
07:15 PM 80.8°F27.1°C 78.3°F25.7°C 92% 2.3 mph S3.7 kmh S 2.3 mph3.7 kmh 27.24 in922.5 mb - 0.00 in0.0 mm 0.00 in0.0 mm
07:20 PM 79.9°F26.6°C 77.7°F25.4°C 93% 2.3 mph SSE3.7 kmh SSE 2.3 mph3.7 kmh 27.24 in922.5 mb - 0.00 in0.0 mm 0.00 in0.0 mm
07:25 PM 79.9°F26.6°C 78.0°F25.6°C 94% 2.3 mph S3.7 kmh S 2.3 mph3.7 kmh 27.24 in922.5 mb - 0.00 in0.0 mm 0.00 in0.0 mm
07:30 PM 79.4°F26.3°C 77.5°F25.3°C 94% 2.3 mph SSW3.7 kmh SSW 2.3 mph3.7 kmh 27.33 in925.5 mb - 0.00 in0.0 mm 0.00 in0.0 mm
07:35 PM 79.1°F26.2°C 77.3°F25.2°C 94% 2.3 mph S3.7 kmh S 3.5 mph5.6 kmh 27.33 in925.5 mb - 0.00 in0.0 mm 0.00 in0.0 mm
07:40 PM 78.6°F25.9°C 77.0°F25.0°C 95% 3.5 mph S5.6 kmh S 3.5 mph5.6 kmh 27.36 in926.5 mb - 0.00 in0.0 mm 0.00 in0.0 mm
07:45 PM 78.4°F25.8°C 76.9°F24.9°C 95% 2.3 mph S3.7 kmh S 3.5 mph5.6 kmh 27.47 in930.2 mb - 0.00 in0.0 mm 0.00 in0.0 mm
07:50 PM 78.1°F25.6°C 76.8°F24.9°C 96% 2.3 mph SSE3.7 kmh SSE 2.3 mph3.7 kmh 27.47 in930.2 mb - 0.00 in0.0 mm 0.00 in0.0 mm
07:55 PM 78.0°F25.6°C 76.8°F24.9°C 96% Calm Calm -- 27.52 in931.9 mb - 0.00 in0.0 mm 0.00 in0.0 mm
08:00 PM 77.7°F25.4°C 76.4°F24.7°C 96% Calm Calm -- 27.52 in931.9 mb - 0.00 in0.0 mm 0.00 in0.0 mm
08:10 PM 77.4°F25.2°C 75.8°F24.3°C 95% Calm Calm -- 27.51 in931.6 mb - 0.00 in0.0 mm 0.00 in0.0 mm
08:15 PM 77.0°F25.0°C 75.4°F24.1°C 95% Calm Calm -- 27.51 in931.6 mb - 0.00 in0.0 mm 0.00 in0.0 mm
08:20 PM 76.6°F24.8°C 75.3°F24.1°C 96% Calm Calm -- 27.51 in931.6 mb - 0.00 in0.0 mm 0.00 in0.0 mm
08:25 PM 76.3°F24.6°C 75.1°F23.9°C 96% Calm Calm -- 27.51 in931.6 mb - 0.00 in0.0 mm 0.00 in0.0 mm
08:30 PM 76.3°F24.6°C 74.7°F23.7°C 95% 1.2 mph SE1.9 kmh SE 2.3 mph3.7 kmh 27.62 in935.3 mb - 0.00 in0.0 mm 0.00 in0.0 mm
08:35 PM 76.7°F24.8°C 74.5°F23.6°C 93% 2.3 mph SSE3.7 kmh SSE 2.3 mph3.7 kmh 27.62 in935.3 mb - 0.00 in0.0 mm 0.00 in0.0 mm
08:40 PM 76.7°F24.8°C 74.5°F23.6°C 93% 2.3 mph E3.7 kmh E 3.5 mph5.6 kmh 27.64 in936.0 mb - 0.00 in0.0 mm 0.00 in0.0 mm
08:45 PM 76.7°F24.8°C 74.5°F23.6°C 93% 1.2 mph S1.9 kmh S 2.3 mph3.7 kmh 27.72 in938.7 mb - 0.00 in0.0 mm 0.00 in0.0 mm
08:50 PM 77.0°F25.0°C 74.8°F23.8°C 93% 2.3 mph SSE3.7 kmh SSE 2.3 mph3.7 kmh 27.72 in938.7 mb - 0.00 in0.0 mm 0.00 in0.0 mm
08:55 PM 77.0°F25.0°C 74.5°F23.6°C 92% 1.2 mph ESE1.9 kmh ESE 1.2 mph1.9 kmh 27.77 in940.4 mb - 0.00 in0.0 mm 0.00 in0.0 mm
09:00 PM 76.8°F24.9°C 74.6°F23.7°C 93% Calm Calm -- 27.77 in940.4 mb - 0.00 in0.0 mm 0.00 in0.0 mm
09:10 PM 75.9°F24.4°C 74.1°F23.4°C 94% Calm Calm 1.2 mph1.9 kmh 27.81 in941.8 mb - 0.00 in0.0 mm 0.00 in0.0 mm
09:15 PM 75.8°F24.3°C 73.9°F23.3°C 94% Calm Calm -- 27.81 in941.8 mb - 0.00 in0.0 mm 0.00 in0.0 mm
09:20 PM 75.5°F24.2°C 74.0°F23.3°C 95% Calm Calm -- 27.80 in941.4 mb - 0.00 in0.0 mm 0.00 in0.0 mm
09:25 PM 75.3°F24.1°C 73.8°F23.2°C 95% Calm Calm -- 27.80 in941.4 mb - 0.00 in0.0 mm 0.00 in0.0 mm
09:30 PM 75.6°F24.2°C 73.7°F23.2°C 94% 1.2 mph ESE1.9 kmh ESE 1.2 mph1.9 kmh 27.90 in944.8 mb - 0.00 in0.0 mm 0.00 in0.0 mm
09:35 PM 75.6°F24.2°C 73.7°F23.2°C 94% 1.2 mph E1.9 kmh E 3.5 mph5.6 kmh 27.90 in944.8 mb - 0.00 in0.0 mm 0.00 in0.0 mm
09:40 PM 76.0°F24.4°C 73.5°F23.1°C 92% 2.3 mph ESE3.7 kmh ESE 2.3 mph3.7 kmh 27.91 in945.1 mb - 0.00 in0.0 mm 0.00 in0.0 mm
09:45 PM 76.3°F24.6°C 73.5°F23.1°C 91% 2.3 mph SE3.7 kmh SE 2.3 mph3.7 kmh 27.94 in946.2 mb - 0.00 in0.0 mm 0.00 in0.0 mm
09:50 PM 76.3°F24.6°C 73.8°F23.2°C 92% 2.3 mph SE3.7 kmh SE 2.3 mph3.7 kmh 27.94 in946.2 mb - 0.00 in0.0 mm 0.00 in0.0 mm
09:55 PM 76.5°F24.7°C 74.0°F23.3°C 92% 2.3 mph S3.7 kmh S 2.3 mph3.7 kmh 27.90 in944.8 mb - 0.00 in0.0 mm 0.00 in0.0 mm
10:00 PM 76.3°F24.6°C 73.8°F23.2°C 92% 2.3 mph SE3.7 kmh SE 2.3 mph3.7 kmh 27.90 in944.8 mb - 0.00 in0.0 mm 0.00 in0.0 mm
10:10 PM 76.1°F24.5°C 73.6°F23.1°C 92% 1.2 mph SE1.9 kmh SE 1.2 mph1.9 kmh 27.91 in945.1 mb - 0.00 in0.0 mm 0.00 in0.0 mm
10:15 PM 75.9°F24.4°C 73.4°F23.0°C 92% 1.2 mph SE1.9 kmh SE 3.5 mph5.6 kmh 27.91 in945.1 mb - 0.00 in0.0 mm 0.00 in0.0 mm
10:20 PM 76.1°F24.5°C 73.9°F23.3°C 93% 2.3 mph S3.7 kmh S 5.8 mph9.3 kmh 27.89 in944.5 mb - 0.00 in0.0 mm 0.00 in0.0 mm
10:25 PM 76.7°F24.8°C 74.2°F23.4°C 92% 3.5 mph SSE5.6 kmh SSE 4.6 mph7.4 kmh 27.89 in944.5 mb - 0.00 in0.0 mm 0.00 in0.0 mm
10:30 PM 77.1°F25.1°C 74.2°F23.4°C 91% 3.5 mph S5.6 kmh S 3.5 mph5.6 kmh 27.96 in946.8 mb - 0.00 in0.0 mm 0.00 in0.0 mm
10:35 PM 77.2°F25.1°C 74.3°F23.5°C 91% 4.6 mph SSE7.4 kmh SSE 5.8 mph9.3 kmh 27.96 in946.8 mb - 0.00 in0.0 mm 0.00 in0.0 mm
10:40 PM 77.0°F25.0°C 74.5°F23.6°C 92% 3.5 mph SE5.6 kmh SE 4.6 mph7.4 kmh 27.97 in947.2 mb - 0.00 in0.0 mm 0.00 in0.0 mm
10:45 PM 76.9°F24.9°C 74.4°F23.6°C 92% 2.3 mph S3.7 kmh S 3.5 mph5.6 kmh 28.01 in948.5 mb - 0.00 in0.0 mm 0.00 in0.0 mm
10:50 PM 76.8°F24.9°C 74.3°F23.5°C 92% 3.5 mph SE5.6 kmh SE 3.5 mph5.6 kmh 28.01 in948.5 mb - 0.00 in0.0 mm 0.00 in0.0 mm
10:55 PM 76.7°F24.8°C 74.5°F23.6°C 93% 1.2 mph SE1.9 kmh SE 1.2 mph1.9 kmh 28.02 in948.9 mb - 0.00 in0.0 mm 0.00 in0.0 mm
11:00 PM 76.3°F24.6°C 74.4°F23.6°C 94% Calm Calm 1.2 mph1.9 kmh 28.02 in948.9 mb - 0.00 in0.0 mm 0.00 in0.0 mm
11:10 PM 76.2°F24.6°C 75.2°F24.0°C 97% 4.6 mph SSE7.4 kmh SSE 5.8 mph9.3 kmh 28.02 in948.9 mb - 0.00 in0.0 mm 0.00 in0.0 mm
11:15 PM 76.3°F24.6°C 75.4°F24.1°C 97% 3.5 mph S5.6 kmh S 4.6 mph7.4 kmh 28.02 in948.9 mb - 0.00 in0.0 mm 0.00 in0.0 mm
11:20 PM 76.3°F24.6°C 75.4°F24.1°C 97% 4.6 mph SSW7.4 kmh SSW 4.6 mph7.4 kmh 28.03 in949.2 mb - 0.00 in0.0 mm 0.00 in0.0 mm
11:25 PM 76.3°F24.6°C 75.4°F24.1°C 97% 4.6 mph S7.4 kmh S 5.8 mph9.3 kmh 28.03 in949.2 mb - 0.00 in0.0 mm 0.00 in0.0 mm
11:30 PM 76.3°F24.6°C 75.4°F24.1°C 97% 5.8 mph S9.3 kmh S 5.8 mph9.3 kmh 28.10 in951.6 mb - 0.00 in0.0 mm 0.00 in0.0 mm
11:35 PM 76.3°F24.6°C 75.4°F24.1°C 97% 6.9 mph S11.1 kmh S 8.1 mph13.0 kmh 28.10 in951.6 mb - 0.00 in0.0 mm 0.00 in0.0 mm
11:40 PM 76.3°F24.6°C 75.4°F24.1°C 97% 8.1 mph S13.0 kmh S 8.1 mph13.0 kmh 28.10 in951.6 mb - 0.00 in0.0 mm 0.00 in0.0 mm
11:45 PM 76.3°F24.6°C 75.4°F24.1°C 97% 8.1 mph SSW13.0 kmh SSW 9.2 mph14.8 kmh 28.18 in954.3 mb - 0.00 in0.0 mm 0.00 in0.0 mm
11:50 PM 76.5°F24.7°C 75.3°F24.1°C 96% 8.1 mph SW13.0 kmh SW 8.1 mph13.0 kmh 28.18 in954.3 mb - 0.00 in0.0 mm 0.00 in0.0 mm
11:55 PM 76.5°F24.7°C 75.3°F24.1°C 96% 8.1 mph SW13.0 kmh SW 8.1 mph13.0 kmh 28.27 in957.3 mb - 0.00 in0.0 mm 0.00 in0.0 mm